createdAt,value
2022-12-03T02:21:33.150Z,7.77
2022-12-03T02:22:12.876Z,6.68
2022-12-03T02:22:56.957Z,6.07
2022-12-03T02:23:33.966Z,5.75
2022-12-03T02:24:12.222Z,6.10
2022-12-03T02:24:55.520Z,5.45
2022-12-03T02:25:32.800Z,5.40
2022-12-03T02:26:07.685Z,6.40
2022-12-03T02:26:39.785Z,5.57
2022-12-03T02:27:12.047Z,6.72
2022-12-03T02:27:47.295Z,6.15
2022-12-03T02:28:19.406Z,5.97
2022-12-03T02:28:51.594Z,5.95
2022-12-03T02:29:24.305Z,5.50
2022-12-03T02:29:59.410Z,5.75
2022-12-03T02:30:32.703Z,5.60
2022-12-03T02:31:05.426Z,6.13
2022-12-03T02:31:40.348Z,5.80
2022-12-03T02:32:12.460Z,5.28
2022-12-03T02:32:45.024Z,5.70
2022-12-03T02:33:19.801Z,6.10
2022-12-03T02:33:51.931Z,6.57
2022-12-03T02:34:35.759Z,7.22
2022-12-03T02:35:17.071Z,6.13
2022-12-03T02:35:49.597Z,6.90
2022-12-03T02:36:21.846Z,6.35
2022-12-03T02:36:53.949Z,6.03
2022-12-03T02:37:33.533Z,5.43
2022-12-03T02:38:12.380Z,5.88
2022-12-03T02:38:45.721Z,6.00
2022-12-03T02:39:20.449Z,5.50
2022-12-03T02:39:54.966Z,5.47
2022-12-03T02:40:33.180Z,7.53
2022-12-03T02:41:11.181Z,6.07
2022-12-03T02:41:58.317Z,5.93
2022-12-03T02:42:36.545Z,6.45
2022-12-03T02:43:09.812Z,6.00
2022-12-03T02:43:41.897Z,6.20
2022-12-03T02:44:14.238Z,6.63
2022-12-03T02:44:46.421Z,6.85
2022-12-03T02:45:26.638Z,6.32
2022-12-03T02:46:01.829Z,6.20
2022-12-03T02:46:34.428Z,6.30
2022-12-03T02:47:09.330Z,6.70
2022-12-03T02:47:44.558Z,6.25
2022-12-03T02:48:22.418Z,6.95
2022-12-03T02:48:54.566Z,7.00
2022-12-03T02:49:26.733Z,7.10
2022-12-03T02:50:02.739Z,6.88
2022-12-03T02:50:38.068Z,7.05
2022-12-03T02:51:14.021Z,6.80
2022-12-03T02:51:46.161Z,5.57
2022-12-03T02:52:18.696Z,7.00
2022-12-03T02:52:55.805Z,7.55
2022-12-03T02:53:30.958Z,7.45
2022-12-03T02:54:04.236Z,7.20
2022-12-03T02:54:39.190Z,6.40
2022-12-03T02:55:13.004Z,6.22
2022-12-03T02:55:48.750Z,6.65
2022-12-03T02:56:28.983Z,6.88
2022-12-03T02:57:01.378Z,6.90
2022-12-03T02:57:35.015Z,6.43
2022-12-03T02:58:09.954Z,6.30
2022-12-03T02:58:44.344Z,7.00
2022-12-03T02:59:16.463Z,5.90
2022-12-03T02:59:51.211Z,6.68
2022-12-03T03:00:23.444Z,6.15
2022-12-03T03:00:58.985Z,5.57
2022-12-03T03:01:31.397Z,6.75
2022-12-03T03:02:04.072Z,5.70
2022-12-03T03:02:39.350Z,6.53
2022-12-03T03:03:11.818Z,5.72
2022-12-03T03:03:46.401Z,5.82
2022-12-03T03:04:22.469Z,6.40
2022-12-03T03:04:55.486Z,6.15
2022-12-03T03:05:27.955Z,5.88
2022-12-03T03:06:04.844Z,8.02
2022-12-03T03:06:36.965Z,7.78
2022-12-03T03:07:09.770Z,5.97
2022-12-03T03:07:45.336Z,6.28
2022-12-03T03:08:18.975Z,6.47
2022-12-03T03:08:51.473Z,5.75
2022-12-03T03:09:26.217Z,6.00
2022-12-03T03:09:59.119Z,5.05
2022-12-03T03:10:35.180Z,6.55
2022-12-03T03:11:12.685Z,6.50
2022-12-03T03:11:44.799Z,5.55
2022-12-03T03:12:17.096Z,6.55
2022-12-03T03:12:52.625Z,6.13
2022-12-03T03:13:24.891Z,6.30
2022-12-03T03:13:57.044Z,5.47
2022-12-03T03:14:31.793Z,6.20
2022-12-03T03:15:05.291Z,5.82
2022-12-03T03:15:38.874Z,6.30
2022-12-03T03:16:13.664Z,6.38
2022-12-03T03:16:46.134Z,6.10
2022-12-03T03:17:18.314Z,6.45
2022-12-03T03:17:53.275Z,6.57
2022-12-03T03:18:25.604Z,5.97
2022-12-03T03:18:57.700Z,5.90
2022-12-03T03:19:33.046Z,6.30
2022-12-03T03:20:07.491Z,5.25
2022-12-03T03:20:40.627Z,5.13
2022-12-03T03:21:15.917Z,6.07
2022-12-03T03:21:48.032Z,6.32
2022-12-03T03:22:22.818Z,8.10
2022-12-03T03:22:55.241Z,6.78
2022-12-03T03:23:27.438Z,5.95
2022-12-03T03:24:02.136Z,5.82
2022-12-03T03:24:34.289Z,6.72
2022-12-03T03:25:09.368Z,6.40
2022-12-03T03:25:46.612Z,5.45
2022-12-03T03:26:21.376Z,5.85
2022-12-03T03:26:54.590Z,6.47
2022-12-03T03:27:30.040Z,5.43
2022-12-03T03:28:02.274Z,6.07
2022-12-03T03:28:38.085Z,5.75
2022-12-03T03:29:12.947Z,6.20
2022-12-03T03:29:45.076Z,6.28
2022-12-03T03:30:17.357Z,6.85
2022-12-03T03:30:52.094Z,6.00
2022-12-03T03:31:24.614Z,7.07
2022-12-03T03:31:58.000Z,6.30
2022-12-03T03:32:33.330Z,7.35
2022-12-03T03:33:06.002Z,6.45
2022-12-03T03:33:40.399Z,7.40
2022-12-03T03:34:15.752Z,6.15
2022-12-03T03:34:47.996Z,6.68
2022-12-03T03:35:20.506Z,6.75
2022-12-03T03:35:56.276Z,5.45
2022-12-03T03:36:28.430Z,6.15
2022-12-03T03:37:00.610Z,6.93
2022-12-03T03:37:35.598Z,6.15
2022-12-03T03:38:09.052Z,6.22
2022-12-03T03:38:41.948Z,7.15
2022-12-03T03:39:17.325Z,6.32
2022-12-03T03:39:49.729Z,6.93
2022-12-03T03:40:22.357Z,7.53
2022-12-03T03:40:57.193Z,7.75
2022-12-03T03:41:33.817Z,6.55
2022-12-03T03:42:06.045Z,6.38
2022-12-03T03:42:41.678Z,6.45
2022-12-03T03:43:14.296Z,7.43
2022-12-03T03:43:48.660Z,6.75
2022-12-03T03:44:23.507Z,6.15
2022-12-03T03:44:55.832Z,6.45
2022-12-03T03:45:29.643Z,5.75
2022-12-03T03:46:06.331Z,6.60
2022-12-03T03:46:39.705Z,7.32
2022-12-03T03:47:12.976Z,6.45
2022-12-03T03:47:48.234Z,6.95
2022-12-03T03:48:21.253Z,6.43
2022-12-03T03:48:53.529Z,5.97
2022-12-03T03:49:28.787Z,5.88
2022-12-03T03:50:01.396Z,6.18
2022-12-03T03:50:34.086Z,6.70
2022-12-03T03:51:09.821Z,6.35
2022-12-03T03:51:42.017Z,6.85
2022-12-03T03:52:14.287Z,6.50
2022-12-03T03:52:49.810Z,7.40
2022-12-03T03:53:23.319Z,6.57
2022-12-03T03:53:56.114Z,6.97
2022-12-03T03:54:31.816Z,8.98
2022-12-03T03:55:04.566Z,7.45
2022-12-03T03:55:36.801Z,7.38
2022-12-03T03:56:12.438Z,7.57
2022-12-03T03:56:47.142Z,7.65
2022-12-03T03:57:19.231Z,7.97
2022-12-03T03:57:54.112Z,8.38
2022-12-03T03:58:26.329Z,7.35
2022-12-03T03:59:01.418Z,6.80
2022-12-03T03:59:33.681Z,7.93
2022-12-03T04:00:08.463Z,8.27
2022-12-03T04:00:46.784Z,9.60
2022-12-03T04:01:19.123Z,10.10
2022-12-03T04:01:52.050Z,6.63
2022-12-03T04:02:29.070Z,6.82
2022-12-03T04:03:01.213Z,7.38
2022-12-03T04:03:34.331Z,6.45
2022-12-03T04:04:17.268Z,7.38
2022-12-03T04:04:50.123Z,6.93
2022-12-03T04:05:24.139Z,7.50
2022-12-03T04:05:58.893Z,5.82
2022-12-03T04:06:30.957Z,6.57
2022-12-03T04:07:03.058Z,6.47
2022-12-03T04:07:37.816Z,6.60
2022-12-03T04:08:10.098Z,6.90
2022-12-03T04:08:42.383Z,6.70
2022-12-03T04:09:17.380Z,6.53
2022-12-03T04:09:49.500Z,6.10
2022-12-03T04:10:36.630Z,5.78
2022-12-03T04:11:23.752Z,5.38
2022-12-03T04:12:13.496Z,5.72
2022-12-03T04:12:57.238Z,5.70
2022-12-03T04:13:31.957Z,6.10
2022-12-03T04:14:04.104Z,6.72
2022-12-03T04:14:36.232Z,6.55
2022-12-03T04:15:12.254Z,6.38
2022-12-03T04:15:44.378Z,6.00
2022-12-03T04:16:16.637Z,7.20
2022-12-03T04:16:51.423Z,5.75
2022-12-03T04:17:23.680Z,6.32
2022-12-03T04:18:10.712Z,5.20
2022-12-03T04:18:45.428Z,6.93
2022-12-03T04:19:20.159Z,5.65
2022-12-03T04:19:52.498Z,6.25
2022-12-03T04:20:24.643Z,4.82
2022-12-03T04:21:19.646Z,6.47
2022-12-03T04:22:06.761Z,5.53
2022-12-03T04:22:41.517Z,6.63
2022-12-03T04:23:13.607Z,5.95
2022-12-03T04:23:45.814Z,5.75
2022-12-03T04:24:20.598Z,6.65
2022-12-03T04:25:12.692Z,6.57
2022-12-03T04:26:11.749Z,6.78
2022-12-03T04:26:58.907Z,5.65
2022-12-03T04:27:48.612Z,6.28
2022-12-03T04:28:35.820Z,6.20
2022-12-03T04:29:08.232Z,6.70
2022-12-03T04:29:42.915Z,7.32
2022-12-03T04:30:15.797Z,7.13
2022-12-03T04:30:47.872Z,6.82
2022-12-03T04:31:35.025Z,7.70
2022-12-03T04:32:22.127Z,5.90
2022-12-03T04:33:09.220Z,6.43
2022-12-03T04:33:56.315Z,6.43
2022-12-03T04:34:43.877Z,6.20
2022-12-03T04:35:31.130Z,7.22
2022-12-03T04:36:05.998Z,5.60
2022-12-03T04:36:38.516Z,7.28
2022-12-03T04:37:12.167Z,5.93
2022-12-03T04:37:46.885Z,5.85
2022-12-03T04:38:19.181Z,6.82
2022-12-03T04:38:51.258Z,6.50
2022-12-03T04:39:23.360Z,6.25
2022-12-03T04:39:58.180Z,5.80
2022-12-03T04:40:45.283Z,5.88
2022-12-03T04:41:17.330Z,6.30
2022-12-03T04:41:49.459Z,6.47
2022-12-03T04:42:24.338Z,6.03
2022-12-03T04:42:58.976Z,6.00
2022-12-03T04:43:32.542Z,6.78
2022-12-03T04:44:19.825Z,6.72
2022-12-03T04:44:54.723Z,5.47
2022-12-03T04:45:27.080Z,6.38
2022-12-03T04:45:59.406Z,6.35
2022-12-03T04:46:31.628Z,5.78
2022-12-03T04:47:10.226Z,5.60
2022-12-03T04:47:42.353Z,5.97
2022-12-03T04:48:14.434Z,5.72
2022-12-03T04:48:46.521Z,6.28
2022-12-03T04:49:21.178Z,6.07
2022-12-03T04:49:53.287Z,6.43
2022-12-03T04:50:27.981Z,5.82
2022-12-03T04:51:00.121Z,6.63
2022-12-03T04:51:32.206Z,6.40
2022-12-03T04:52:07.567Z,6.63
2022-12-03T04:52:39.661Z,5.93
2022-12-03T04:53:13.024Z,5.57
2022-12-03T04:53:47.657Z,5.88
2022-12-03T04:54:19.750Z,5.47
2022-12-03T04:54:54.621Z,6.47
2022-12-03T04:55:26.878Z,6.43
2022-12-03T04:55:58.957Z,5.65
2022-12-03T04:56:31.051Z,6.07
2022-12-03T04:57:06.481Z,6.72
2022-12-03T04:57:38.545Z,5.53
2022-12-03T04:58:13.254Z,6.82
2022-12-03T04:58:45.387Z,6.60
2022-12-03T04:59:20.054Z,6.13
2022-12-03T04:59:52.106Z,6.05
2022-12-03T05:00:24.496Z,6.57
2022-12-03T05:00:59.239Z,5.70
2022-12-03T05:01:31.444Z,6.13
2022-12-03T05:02:04.540Z,6.32
2022-12-03T05:02:40.702Z,6.85
2022-12-03T05:03:12.815Z,6.20
2022-12-03T05:03:44.907Z,7.00
2022-12-03T05:04:19.861Z,6.75
2022-12-03T05:04:52.361Z,6.07
2022-12-03T05:05:24.739Z,6.93
2022-12-03T05:05:59.397Z,6.70
2022-12-03T05:06:31.510Z,6.38
2022-12-03T05:07:06.729Z,5.78
2022-12-03T05:07:38.971Z,5.82
2022-12-03T05:08:11.155Z,7.07
2022-12-03T05:08:43.295Z,6.00
2022-12-03T05:09:17.958Z,5.95
2022-12-03T05:09:50.022Z,6.65
2022-12-03T05:10:22.096Z,6.78
2022-12-03T05:10:56.822Z,6.97
2022-12-03T05:11:28.900Z,7.85
2022-12-03T05:12:01.050Z,6.30
2022-12-03T05:12:35.884Z,6.63
2022-12-03T05:13:07.958Z,6.20
2022-12-03T05:13:43.176Z,5.93
2022-12-03T05:14:18.198Z,5.85
2022-12-03T05:14:50.263Z,6.35
2022-12-03T05:15:22.355Z,5.90
2022-12-03T05:15:54.494Z,6.88
2022-12-03T05:16:29.271Z,6.68
2022-12-03T05:17:01.548Z,6.40
2022-12-03T05:17:33.879Z,7.22
2022-12-03T05:18:08.654Z,8.90
2022-12-03T05:18:40.720Z,7.50
2022-12-03T05:19:12.781Z,7.68
2022-12-03T05:19:59.922Z,7.10
2022-12-03T05:20:49.827Z,7.68
2022-12-03T05:21:28.004Z,7.32
2022-12-03T05:22:00.146Z,5.75
2022-12-03T05:22:32.231Z,6.53
2022-12-03T05:23:04.359Z,6.75
2022-12-03T05:23:39.069Z,6.03
2022-12-03T05:24:11.150Z,6.13
2022-12-03T05:24:43.223Z,6.85
2022-12-03T05:25:15.372Z,7.68
2022-12-03T05:25:50.115Z,6.85
2022-12-03T05:26:22.241Z,6.15
2022-12-03T05:26:57.039Z,6.88
2022-12-03T05:27:29.222Z,6.40
2022-12-03T05:28:01.274Z,6.82
2022-12-03T05:28:36.106Z,6.50
2022-12-03T05:29:10.765Z,6.97
2022-12-03T05:29:42.828Z,5.35
2022-12-03T05:30:17.857Z,7.22
2022-12-03T05:30:50.191Z,6.80
2022-12-03T05:31:22.420Z,7.22
2022-12-03T05:31:57.134Z,5.85
2022-12-03T05:32:29.304Z,8.75
2022-12-03T05:33:01.575Z,10.52
2022-12-03T05:33:33.773Z,10.57
2022-12-03T05:34:08.527Z,6.65
2022-12-03T05:34:40.609Z,7.32
2022-12-03T05:35:12.730Z,7.13
2022-12-03T05:35:44.845Z,6.85
2022-12-03T05:36:19.525Z,7.05
2022-12-03T05:36:51.585Z,7.28
2022-12-03T05:37:23.668Z,6.65
2022-12-03T05:37:55.732Z,6.13
2022-12-03T05:38:30.416Z,5.50
2022-12-03T05:39:02.538Z,6.28
2022-12-03T05:39:34.793Z,6.97
2022-12-03T05:40:11.017Z,7.18
2022-12-03T05:40:43.106Z,7.35
2022-12-03T05:41:30.215Z,7.30
2022-12-03T05:42:17.394Z,9.15
2022-12-03T05:42:56.791Z,6.18
2022-12-03T05:43:31.532Z,7.22
2022-12-03T05:44:03.608Z,7.53
2022-12-03T05:44:38.421Z,5.88
2022-12-03T05:45:13.524Z,6.53
2022-12-03T05:45:45.698Z,6.25
2022-12-03T05:46:18.056Z,6.50
2022-12-03T05:46:52.722Z,7.13
2022-12-03T05:47:24.898Z,6.47
2022-12-03T05:47:58.759Z,6.32
2022-12-03T05:48:33.469Z,6.38
2022-12-03T05:49:05.556Z,8.35
2022-12-03T05:49:37.638Z,6.47
2022-12-03T05:50:12.847Z,6.78
2022-12-03T05:50:46.448Z,6.88
2022-12-03T05:51:23.657Z,7.40
2022-12-03T05:51:58.680Z,6.68
2022-12-03T05:52:31.054Z,6.75
2022-12-03T05:53:05.770Z,6.90
2022-12-03T05:53:37.904Z,5.90
2022-12-03T05:54:10.134Z,7.00
2022-12-03T05:54:44.870Z,7.00
2022-12-03T05:55:18.073Z,6.00
2022-12-03T05:55:50.137Z,6.65
2022-12-03T05:56:24.826Z,7.20
2022-12-03T05:56:56.892Z,5.75
2022-12-03T05:57:29.046Z,6.65
2022-12-03T05:58:03.757Z,6.50
2022-12-03T05:58:36.204Z,7.20
2022-12-03T05:59:08.270Z,8.85
2022-12-03T05:59:45.518Z,8.80
2022-12-03T06:00:21.068Z,8.48
2022-12-03T06:00:55.750Z,8.52
2022-12-03T06:01:27.811Z,7.93
2022-12-03T06:01:59.915Z,7.65
2022-12-03T06:02:32.443Z,7.00
2022-12-03T06:03:09.123Z,8.30
2022-12-03T06:03:41.411Z,7.50
2022-12-03T06:04:13.599Z,9.45
2022-12-03T06:04:48.291Z,8.00
2022-12-03T06:05:21.120Z,7.03
2022-12-03T06:05:53.299Z,8.45
2022-12-03T06:06:28.033Z,7.90
2022-12-03T06:07:00.179Z,8.05
2022-12-03T06:07:32.437Z,8.30
2022-12-03T06:08:07.690Z,6.88
2022-12-03T06:08:39.927Z,8.30
2022-12-03T06:09:12.073Z,7.00
2022-12-03T06:09:46.748Z,9.40
2022-12-03T06:10:22.571Z,7.68
2022-12-03T06:10:54.637Z,9.82
2022-12-03T06:11:30.037Z,7.53
2022-12-03T06:12:02.219Z,7.38
2022-12-03T06:12:34.547Z,7.70
2022-12-03T06:13:09.233Z,7.50
2022-12-03T06:13:41.326Z,7.80
2022-12-03T06:14:13.423Z,9.77
2022-12-03T06:14:50.724Z,7.95
2022-12-03T06:15:23.109Z,7.65
2022-12-03T06:15:55.206Z,8.23
2022-12-03T06:16:30.039Z,8.95
2022-12-03T06:17:02.461Z,7.53
2022-12-03T06:17:34.629Z,9.15
2022-12-03T06:18:06.697Z,6.43
2022-12-03T06:18:41.396Z,9.27
2022-12-03T06:19:13.461Z,7.60
2022-12-03T06:19:45.575Z,7.68
2022-12-03T06:20:22.380Z,7.40
2022-12-03T06:20:54.472Z,8.50
2022-12-03T06:21:26.608Z,8.70
2022-12-03T06:21:58.728Z,8.57
2022-12-03T06:22:33.532Z,9.15
2022-12-03T06:23:05.659Z,8.95
2022-12-03T06:23:44.758Z,8.80
2022-12-03T06:24:17.022Z,9.80
2022-12-03T06:24:49.204Z,8.18
2022-12-03T06:25:23.937Z,9.43
2022-12-03T06:25:56.025Z,8.82
2022-12-03T06:26:30.726Z,8.77
2022-12-03T06:27:02.803Z,9.90
2022-12-03T06:27:34.875Z,9.35
2022-12-03T06:28:09.812Z,9.50
2022-12-03T06:28:46.388Z,8.52
2022-12-03T06:29:18.507Z,8.55
2022-12-03T06:29:55.891Z,9.68
2022-12-03T06:30:28.053Z,8.50
2022-12-03T06:31:00.197Z,10.05
2022-12-03T06:31:34.963Z,9.35
2022-12-03T06:32:07.904Z,9.23
2022-12-03T06:32:42.736Z,10.05
2022-12-03T06:33:14.821Z,9.52
2022-12-03T06:33:46.905Z,10.73
2022-12-03T06:34:21.700Z,10.52
2022-12-03T06:34:54.103Z,11.20
2022-12-03T06:35:26.397Z,10.00
2022-12-03T06:36:01.279Z,9.60
2022-12-03T06:36:33.363Z,8.93
2022-12-03T06:37:05.444Z,18.05
2022-12-03T06:37:40.143Z,10.88
2022-12-03T06:38:12.292Z,9.93
2022-12-03T06:38:44.412Z,9.52
2022-12-03T06:39:19.151Z,9.52
2022-12-03T06:39:51.372Z,9.75
2022-12-03T06:40:24.635Z,11.02
2022-12-03T06:40:59.305Z,10.48
2022-12-03T06:41:31.387Z,9.13
2022-12-03T06:42:03.560Z,9.50
2022-12-03T06:42:38.234Z,9.20
2022-12-03T06:43:10.324Z,9.25
2022-12-03T06:43:42.424Z,10.32
2022-12-03T06:44:17.144Z,9.55
2022-12-03T06:44:49.306Z,13.05
2022-12-03T06:45:26.638Z,10.50
2022-12-03T06:45:58.749Z,9.50
2022-12-03T06:46:30.933Z,11.02
2022-12-03T06:47:05.693Z,9.48
2022-12-03T06:47:37.882Z,9.57
2022-12-03T06:48:09.943Z,9.45
2022-12-03T06:48:44.606Z,9.93
2022-12-03T06:49:16.729Z,10.02
2022-12-03T06:49:51.414Z,9.77
2022-12-03T06:50:23.608Z,9.63
2022-12-03T06:50:55.746Z,13.50
2022-12-03T06:51:30.715Z,12.63
2022-12-03T06:52:02.855Z,10.75
2022-12-03T06:52:37.997Z,11.07
2022-12-03T06:53:10.081Z,11.55
2022-12-03T06:53:42.173Z,11.32
2022-12-03T06:54:14.264Z,11.20
2022-12-03T06:54:48.926Z,12.68
2022-12-03T06:55:21.007Z,12.10
2022-12-03T06:55:53.117Z,10.25
2022-12-03T06:56:34.421Z,13.88
2022-12-03T06:57:08.105Z,10.15
2022-12-03T06:57:42.903Z,11.35
2022-12-03T06:58:14.992Z,11.68
2022-12-03T06:58:47.141Z,10.25
2022-12-03T06:59:21.950Z,10.48
2022-12-03T06:59:54.286Z,8.85
2022-12-03T07:00:31.711Z,11.48
2022-12-03T07:01:03.924Z,13.70
2022-12-03T07:01:36.031Z,8.88
2022-12-03T07:02:11.217Z,9.77
2022-12-03T07:02:44.769Z,12.65
2022-12-03T07:03:18.827Z,10.18
2022-12-03T07:03:53.521Z,11.88
2022-12-03T07:04:25.621Z,11.43
2022-12-03T07:04:58.024Z,10.05
2022-12-03T07:05:32.986Z,11.85
2022-12-03T07:06:05.411Z,12.30
2022-12-03T07:06:37.515Z,9.38
2022-12-03T07:07:12.230Z,10.05
2022-12-03T07:07:44.584Z,11.27
2022-12-03T07:08:16.759Z,14.10
2022-12-03T07:08:51.457Z,12.90
2022-12-03T07:09:23.885Z,12.25
2022-12-03T07:09:56.071Z,18.55
2022-12-03T07:10:30.849Z,10.35
2022-12-03T07:11:02.948Z,10.38
2022-12-03T07:11:40.543Z,9.73
2022-12-03T07:12:15.615Z,10.90
2022-12-03T07:12:47.726Z,10.43
2022-12-03T07:13:20.019Z,10.80
2022-12-03T07:13:52.102Z,11.73
2022-12-03T07:14:26.925Z,11.95
2022-12-03T07:14:59.205Z,10.43
2022-12-03T07:15:33.858Z,13.27
2022-12-03T07:16:09.715Z,11.82
2022-12-03T07:16:43.536Z,12.63
2022-12-03T07:17:18.324Z,10.60
2022-12-03T07:17:51.226Z,10.93
2022-12-03T07:18:23.303Z,10.65
2022-12-03T07:18:58.359Z,10.40
2022-12-03T07:19:32.856Z,11.23
2022-12-03T07:20:09.609Z,9.77
2022-12-03T07:20:41.717Z,10.45
2022-12-03T07:21:14.657Z,12.27
2022-12-03T07:21:49.385Z,10.95
2022-12-03T07:22:21.483Z,10.20
2022-12-03T07:22:56.233Z,10.60
2022-12-03T07:23:28.314Z,11.73
2022-12-03T07:24:03.104Z,11.93
2022-12-03T07:24:35.282Z,9.05
2022-12-03T07:25:11.571Z,10.43
2022-12-03T07:25:43.681Z,10.10
2022-12-03T07:26:15.946Z,11.52
2022-12-03T07:26:50.610Z,10.45
2022-12-03T07:27:22.710Z,11.98
2022-12-03T07:27:54.939Z,9.23
2022-12-03T07:28:29.617Z,11.80
2022-12-03T07:29:01.896Z,11.52
2022-12-03T07:29:33.983Z,10.70
2022-12-03T07:30:11.322Z,10.45
2022-12-03T07:30:46.040Z,10.60
2022-12-03T07:31:18.186Z,11.10
2022-12-03T07:31:53.300Z,10.45
2022-12-03T07:32:25.468Z,13.27
2022-12-03T07:32:57.522Z,12.15
2022-12-03T07:33:32.186Z,11.43
2022-12-03T07:34:04.275Z,10.45
2022-12-03T10:36:41.141Z,15.35
2022-12-03T10:37:16.416Z,14.73
2022-12-03T10:37:50.686Z,14.90
2022-12-03T10:38:26.642Z,14.10
2022-12-03T10:39:11.083Z,13.23
2022-12-03T10:40:05.437Z,13.25
2022-12-03T10:40:40.628Z,12.85
2022-12-03T10:41:29.389Z,13.48
2022-12-03T10:42:15.171Z,16.60
2022-12-03T10:42:49.811Z,12.82
2022-12-03T10:43:24.053Z,10.98
2022-12-03T10:44:15.333Z,13.02
2022-12-03T10:44:47.413Z,11.75
2022-12-03T10:45:24.345Z,12.85
2022-12-03T10:46:11.733Z,11.55
2022-12-03T10:46:47.108Z,10.65
2022-12-03T10:47:21.125Z,11.82
2022-12-03T10:48:05.499Z,10.98
2022-12-03T10:48:40.958Z,11.35
2022-12-03T10:49:17.451Z,12.50
2022-12-03T10:50:04.948Z,11.38
2022-12-03T10:50:38.391Z,11.80
2022-12-03T10:51:21.077Z,10.93
2022-12-03T10:51:55.822Z,11.20
2022-12-03T10:52:30.631Z,11.18
2022-12-03T10:53:03.421Z,11.27
2022-12-03T10:53:41.423Z,14.60
2022-12-03T10:54:20.387Z,11.98
2022-12-03T10:54:55.431Z,8.73
2022-12-03T10:55:29.118Z,10.82
2022-12-03T10:56:06.849Z,11.10
2022-12-03T10:56:39.102Z,10.05
2022-12-03T10:57:11.430Z,11.07
2022-12-03T10:57:47.151Z,12.13
2022-12-03T10:58:22.885Z,12.05
2022-12-03T10:58:58.053Z,13.30
2022-12-03T10:59:33.114Z,11.60
2022-12-03T11:00:09.940Z,11.23
2022-12-03T11:00:42.008Z,11.18
2022-12-03T11:01:17.344Z,10.90
2022-12-03T11:01:53.471Z,11.65
2022-12-03T11:02:26.586Z,11.50
2022-12-03T11:02:58.670Z,9.65
2022-12-03T11:03:38.645Z,12.82
2022-12-03T11:04:21.446Z,11.32
2022-12-03T11:04:57.698Z,11.70
2022-12-03T11:05:29.886Z,10.48
2022-12-03T11:06:02.979Z,13.45
2022-12-03T11:06:37.678Z,11.13
2022-12-03T11:07:17.526Z,11.07
2022-12-03T11:07:49.944Z,9.93
2022-12-03T11:08:26.854Z,12.18
2022-12-03T11:09:03.827Z,11.23
2022-12-03T11:09:41.767Z,11.50
2022-12-03T11:10:18.314Z,11.70
2022-12-03T11:11:01.142Z,11.02
2022-12-03T11:11:33.511Z,11.00
2022-12-03T11:12:10.546Z,12.70
2022-12-03T11:12:42.971Z,12.07
2022-12-03T11:13:47.123Z,10.57
2022-12-03T11:14:49.328Z,15.10
2022-12-03T11:15:45.587Z,10.57
2022-12-03T11:16:48.128Z,12.40
2022-12-03T11:17:44.384Z,10.07
2022-12-03T11:18:46.054Z,11.10
2022-12-03T11:19:21.805Z,11.35
2022-12-03T11:19:54.008Z,14.02
2022-12-03T11:21:07.691Z,13.20
2022-12-03T11:22:19.778Z,11.73
2022-12-03T11:22:58.376Z,11.98
2022-12-03T11:24:00.444Z,13.30
2022-12-03T11:24:37.137Z,14.00
2022-12-03T11:25:47.928Z,13.60
2022-12-03T11:26:57.627Z,10.25
2022-12-03T11:27:29.732Z,9.88
2022-12-03T11:28:34.804Z,12.77
2022-12-03T11:29:14.416Z,10.82
2022-12-03T11:29:59.789Z,9.88
2022-12-03T11:31:09.868Z,10.25
2022-12-03T11:31:43.887Z,10.43
2022-12-03T11:32:48.441Z,10.00
2022-12-03T11:33:22.333Z,11.63
2022-12-03T11:34:38.942Z,10.60
2022-12-03T11:35:12.322Z,13.02
2022-12-03T11:36:15.444Z,10.60
2022-12-03T11:37:17.430Z,9.13
2022-12-03T11:37:52.361Z,12.02
2022-12-03T11:38:52.326Z,9.60
2022-12-03T11:40:37.705Z,9.02
2022-12-03T11:41:12.998Z,10.63
2022-12-03T11:42:25.731Z,12.50
2022-12-03T11:42:57.885Z,12.52
2022-12-03T11:44:04.750Z,9.98
2022-12-03T11:44:36.962Z,11.43
2022-12-03T11:45:18.868Z,8.32
2022-12-03T11:45:53.687Z,9.90
2022-12-03T11:46:29.693Z,11.20
2022-12-03T11:47:15.345Z,15.15
2022-12-03T11:48:00.866Z,8.77
2022-12-03T11:48:33.118Z,10.75
2022-12-03T11:49:26.066Z,9.27
2022-12-03T11:49:58.302Z,11.35
2022-12-03T11:50:39.790Z,8.93
2022-12-03T11:51:14.630Z,11.43
2022-12-03T11:51:46.920Z,8.63
2022-12-03T11:52:32.445Z,9.77
2022-12-03T11:53:14.643Z,10.40
2022-12-03T11:53:53.995Z,10.85
2022-12-03T11:54:26.516Z,9.05
2022-12-03T11:55:05.530Z,10.90
2022-12-03T11:55:40.348Z,11.93
2022-12-03T11:56:20.302Z,9.63
2022-12-03T11:56:53.806Z,9.70
2022-12-03T11:57:33.215Z,10.30
2022-12-03T11:58:16.163Z,10.13
2022-12-03T11:58:48.800Z,10.20
2022-12-03T11:59:20.912Z,9.10
2022-12-03T12:00:10.331Z,10.50
2022-12-03T12:00:51.662Z,10.25
2022-12-03T12:01:38.833Z,11.90
2022-12-03T12:02:20.517Z,10.77
2022-12-03T12:02:57.313Z,9.55
2022-12-03T12:03:33.473Z,8.88
2022-12-03T12:04:07.088Z,8.43
2022-12-03T12:04:46.553Z,9.68
2022-12-03T12:05:28.726Z,9.30
2022-12-03T12:06:09.005Z,9.15
2022-12-03T12:06:42.728Z,9.63
2022-12-03T12:07:38.022Z,8.25
2022-12-03T12:08:19.740Z,8.65
2022-12-03T12:09:03.966Z,9.65
2022-12-03T12:09:50.808Z,11.38
2022-12-03T12:10:44.754Z,11.90
2022-12-03T12:11:18.450Z,11.00
2022-12-03T12:11:53.125Z,9.50
2022-12-03T12:12:31.280Z,9.88
2022-12-03T12:13:03.431Z,9.77
2022-12-03T12:13:59.532Z,9.05
2022-12-03T12:14:31.600Z,9.07
2022-12-03T12:15:34.906Z,9.13
2022-12-03T12:16:11.117Z,10.63
2022-12-03T12:16:51.455Z,9.05
2022-12-03T12:18:35.488Z,11.07
2022-12-03T12:19:35.722Z,9.15
2022-12-03T12:20:24.723Z,9.25
2022-12-03T12:21:19.481Z,8.90
2022-12-03T12:21:51.647Z,11.48
2022-12-03T12:22:33.622Z,10.57
2022-12-03T12:23:22.059Z,10.88
2022-12-03T12:24:00.414Z,9.52
2022-12-03T12:24:36.544Z,10.18
2022-12-03T12:25:42.389Z,9.18
2022-12-03T12:26:14.525Z,8.50
2022-12-03T12:26:50.735Z,8.60
2022-12-03T12:27:27.142Z,9.93
2022-12-03T12:27:59.235Z,10.32
2022-12-03T12:28:33.925Z,8.40
2022-12-03T12:29:06.000Z,8.20
2022-12-03T12:29:41.510Z,9.27
2022-12-03T12:30:17.997Z,9.63
2022-12-03T12:30:50.056Z,11.15
2022-12-03T12:31:23.096Z,8.90
2022-12-03T12:32:03.622Z,9.82
2022-12-03T12:32:44.459Z,10.05
2022-12-03T12:33:23.674Z,10.35
2022-12-03T12:33:55.797Z,10.60
2022-12-03T12:34:27.937Z,9.85
2022-12-03T12:35:05.759Z,13.43
2022-12-03T12:35:37.925Z,12.98
2022-12-03T12:36:10.757Z,9.63
2022-12-03T12:36:45.451Z,12.02
2022-12-03T12:37:20.762Z,11.07
2022-12-03T12:37:59.993Z,11.25
2022-12-03T12:38:33.188Z,11.63
2022-12-03T12:39:11.103Z,10.43
2022-12-03T12:39:45.878Z,8.45
2022-12-03T12:40:18.933Z,9.45
2022-12-03T12:40:53.669Z,10.18
2022-12-03T12:41:26.062Z,9.65
2022-12-03T12:41:59.054Z,9.38
2022-12-03T12:42:36.620Z,11.63
2022-12-03T12:43:23.491Z,11.73
2022-12-03T12:43:58.927Z,10.82
2022-12-03T12:44:31.000Z,11.15
2022-12-03T12:45:16.853Z,11.50
2022-12-03T12:45:49.902Z,10.00
2022-12-03T12:46:47.346Z,10.90
2022-12-03T12:47:17.901Z,10.40
2022-12-03T12:48:03.230Z,9.02
2022-12-03T12:48:35.540Z,9.48
2022-12-03T12:49:14.445Z,8.48
2022-12-03T12:49:51.600Z,10.45
2022-12-03T12:50:27.862Z,9.82
2022-12-03T12:51:06.465Z,10.93
2022-12-03T12:51:46.220Z,12.23
2022-12-03T12:52:18.349Z,8.90
2022-12-03T12:52:56.001Z,8.55
2022-12-03T12:53:33.455Z,11.30
2022-12-03T12:54:15.942Z,11.25
2022-12-03T12:54:48.072Z,9.35
2022-12-03T12:55:20.888Z,10.70
2022-12-03T12:55:59.210Z,13.77
2022-12-03T12:56:32.337Z,11.70
2022-12-03T12:57:15.698Z,10.25
2022-12-03T12:57:47.943Z,10.32
2022-12-03T12:58:23.202Z,10.13
2022-12-03T12:58:59.505Z,8.73
2022-12-03T12:59:31.884Z,9.25
2022-12-03T13:00:08.909Z,8.55
2022-12-03T13:00:41.797Z,8.38
2022-12-03T13:01:20.481Z,8.95
2022-12-03T13:01:55.679Z,8.93
2022-12-03T13:02:45.152Z,10.85
2022-12-03T13:03:21.560Z,10.38
2022-12-03T13:03:53.877Z,10.18
2022-12-03T13:04:33.202Z,12.30
2022-12-03T13:05:08.204Z,8.80
2022-12-03T13:05:45.145Z,12.43
2022-12-03T13:06:17.948Z,9.45
2022-12-03T13:06:56.090Z,8.90
2022-12-03T13:07:28.251Z,8.68
2022-12-03T13:08:08.858Z,9.27
2022-12-03T13:08:45.531Z,8.10
2022-12-03T13:09:24.625Z,9.77
2022-12-03T13:10:24.602Z,8.93
2022-12-03T13:11:00.676Z,6.50
2022-12-03T13:11:37.170Z,9.13
2022-12-03T13:12:20.107Z,9.77
2022-12-03T13:12:54.842Z,9.50
2022-12-03T13:13:31.368Z,8.57
2022-12-03T13:14:13.559Z,9.35
2022-12-03T13:14:45.833Z,8.65
2022-12-03T13:15:36.751Z,10.25
2022-12-03T13:16:16.286Z,10.38
2022-12-03T13:16:49.556Z,9.02
2022-12-03T13:17:24.668Z,8.05
2022-12-03T13:17:59.831Z,8.82
2022-12-03T13:18:35.369Z,8.80
2022-12-03T13:19:22.449Z,9.95
2022-12-03T13:20:07.576Z,11.52
2022-12-03T13:20:40.098Z,10.27
2022-12-03T13:21:39.150Z,8.57
2022-12-03T13:22:15.442Z,11.63
2022-12-03T13:22:47.500Z,10.55
2022-12-03T13:23:34.181Z,8.60